Time;durP1;ratioP1;P1;durP2;ratioP2;P2;SDS_P1;SDS_P2;PMS_P1;PMS_P2;Temp;Humidity;BMP_temperature;BMP_pressure;BME280_temperature;BME280_humidity;BME280_pressure;Samples;Min_cycle;Max_cycle;Signal;HPM_P1;HPM_P2
2023/04/01 00:00:48;;;;;;;;;1.40;0.40;;;;;12.02;63.57;99595.81;5037645;28;45452;-58
2023/04/01 00:03:14;;;;;;;;;0.00;0.00;;;;;12.40;63.47;99656.69;5052432;28;45390;-58
2023/04/01 00:05:39;;;;;;;;;0.00;0.00;;;;;12.13;63.75;99624.34;5052562;28;46112;-57
2023/04/01 00:08:05;;;;;;;;;1.25;0.75;;;;;12.28;64.31;99665.84;5035584;28;45356;-58
2023/04/01 00:10:30;;;;;;;;;0.00;0.00;;;;;12.24;64.76;99647.34;5002689;28;45361;-57
2023/04/01 00:12:56;;;;;;;;;0.25;0.00;;;;;12.12;64.88;99642.75;5035711;28;45339;-57
2023/04/01 00:15:21;;;;;;;;;0.00;0.00;;;;;11.96;64.45;99640.81;5018777;28;47607;-58
2023/04/01 00:17:48;;;;;;;;;2.75;1.00;;;;;12.16;64.93;99668.69;5018837;28;45910;-57
2023/04/01 00:20:14;;;;;;;;;1.20;0.20;;;;;12.10;64.70;99666.13;5036628;28;45228;-57
2023/04/01 00:22:40;;;;;;;;;0.00;0.00;;;;;12.07;65.17;99665.50;5035512;28;45710;-57
2023/04/01 00:25:06;;;;;;;;;2.20;0.00;;;;;12.12;65.09;99669.44;5036360;28;46662;-58
2023/04/01 00:27:31;;;;;;;;;0.00;0.00;;;;;12.03;65.18;99663.47;5036447;28;45535;-58
2023/04/01 00:29:57;;;;;;;;;2.25;1.00;;;;;12.08;65.31;99677.38;5036820;28;45435;-58
2023/04/01 00:32:22;;;;;;;;;0.00;0.00;;;;;12.10;65.45;99660.63;5018778;28;45478;-58
2023/04/01 00:34:51;;;;;;;;;1.00;1.00;;;;;12.15;65.62;99672.53;5017987;28;46326;-56
2023/04/01 00:37:17;;;;;;;;;0.80;0.00;;;;;12.05;64.94;99651.19;5036296;28;45390;-57
2023/04/01 00:39:44;;;;;;;;;0.00;0.00;;;;;12.03;65.30;99656.13;5018631;28;45194;-56
2023/04/01 00:42:10;;;;;;;;;0.00;0.00;;;;;12.18;64.90;99662.97;5018548;28;45454;-56
2023/04/01 00:44:36;;;;;;;;;1.80;0.00;;;;;12.22;65.28;99660.53;5000732;28;46619;-57
2023/04/01 00:47:02;;;;;;;;;0.60;0.60;;;;;12.10;65.01;99646.88;5018255;28;45595;-56
2023/04/01 00:49:30;;;;;;;;;2.00;0.75;;;;;12.22;64.65;99666.03;5018331;28;45390;-57
2023/04/01 00:51:56;;;;;;;;;0.00;0.00;;;;;12.12;64.68;99664.75;5035100;28;45363;-56
2023/04/01 00:54:22;;;;;;;;;1.00;1.00;;;;;12.05;65.38;99669.59;5017829;28;46585;-58
2023/04/01 00:56:49;;;;;;;;;0.50;0.00;;;;;12.11;64.81;99673.28;5018097;28;45538;-58
2023/04/01 00:59:26;;;;;;;;;1.20;0.00;;;;;11.86;65.00;99602.97;5018038;28;45334;-57
2023/04/01 01:01:52;;;;;;;;;1.00;0.00;;;;;12.14;64.90;99645.28;5018667;28;45450;-57
2023/04/01 01:04:26;;;;;;;;;0.00;0.00;;;;;12.17;65.38;99670.34;5034294;28;47377;-56
2023/04/01 01:07:18;;;;;;;;;2.00;0.00;;;;;12.11;65.25;99648.53;5035531;28;45313;-55
2023/04/01 01:09:51;;;;;;;;;0.00;0.00;;;;;12.16;65.65;99660.44;5020769;28;45486;-57
2023/04/01 01:12:38;;;;;;;;;1.80;0.80;;;;;12.15;65.43;99644.19;5017894;28;45416;-55
2023/04/01 01:15:12;;;;;;;;;1.20;1.20;;;;;12.01;65.54;99625.22;5033812;28;47874;-55
2023/04/01 01:17:47;;;;;;;;;0.00;0.00;;;;;12.03;65.59;99623.13;5035369;28;45508;-56
2023/04/01 01:20:49;;;;;;;;;1.40;1.00;;;;;12.06;65.50;99628.09;5035659;28;45294;-56
2023/04/01 01:23:48;;;;;;;;;0.00;0.00;;;;;12.25;65.25;99652.63;5035520;28;45923;-56
2023/04/01 01:26:29;;;;;;;;;2.20;0.00;;;;;11.96;65.69;99638.91;5035604;28;45768;-55
2023/04/01 01:29:06;;;;;;;;;2.00;0.00;;;;;12.16;65.35;99654.09;5035115;28;45383;-55
2023/04/01 01:31:44;;;;;;;;;1.60;0.00;;;;;11.92;65.82;99667.97;5035909;28;45331;-55
2023/04/01 01:34:42;;;;;;;;;0.00;0.00;;;;;11.89;66.48;99676.69;5035332;28;45406;-56
2023/04/01 01:37:13;;;;;;;;;0.20;0.20;;;;;11.93;66.33;99664.13;5001566;28;47760;-58
2023/04/01 01:39:38;;;;;;;;;1.00;1.00;;;;;11.98;66.31;99655.13;5017633;28;45442;-56
2023/04/01 01:42:05;;;;;;;;;1.00;0.00;;;;;11.89;66.12;99671.19;5014423;28;45388;-58
2023/04/01 01:44:31;;;;;;;;;1.00;1.00;;;;;12.00;66.79;99666.75;5046950;28;45818;-55
2023/04/01 01:46:56;;;;;;;;;0.00;0.00;;;;;11.96;67.25;99658.16;5050437;28;45535;-56
2023/04/01 01:49:22;;;;;;;;;0.00;0.00;;;;;11.92;67.64;99656.97;5035786;28;45366;-56
2023/04/01 01:51:48;;;;;;;;;0.00;0.00;;;;;11.95;67.78;99685.91;5030927;28;45301;-57
2023/04/01 01:54:14;;;;;;;;;0.25;0.00;;;;;11.78;67.70;99654.53;5036475;28;45348;-57
2023/04/01 01:56:40;;;;;;;;;0.00;0.00;;;;;11.72;67.54;99655.53;5019147;28;46568;-58
2023/04/01 01:59:07;;;;;;;;;3.00;0.00;;;;;11.85;67.33;99667.31;5016956;28;45380;-56
2023/04/01 02:01:34;;;;;;;;;0.00;0.00;;;;;11.86;67.42;99672.56;5017403;28;45315;-57
2023/04/01 02:03:59;;;;;;;;;0.00;0.00;;;;;11.84;67.80;99685.69;5033794;28;45546;-56
2023/04/01 02:06:27;;;;;;;;;0.00;0.00;;;;;11.83;67.96;99688.69;5033534;28;46140;-56
2023/04/01 02:08:56;;;;;;;;;0.40;0.00;;;;;11.82;68.11;99679.63;5016971;28;45372;-58
2023/04/01 02:11:26;;;;;;;;;1.00;1.00;;;;;11.90;68.11;99681.16;5016924;28;45421;-57
2023/04/01 02:13:56;;;;;;;;;1.60;0.00;;;;;11.77;68.26;99687.75;5033612;28;45485;-56
2023/04/01 02:16:31;;;;;;;;;3.00;0.00;;;;;11.86;68.40;99682.72;5033103;28;46587;-58
2023/04/01 02:18:57;;;;;;;;;0.00;0.00;;;;;11.76;68.11;99689.69;5016630;28;45341;-58
2023/04/01 02:21:24;;;;;;;;;1.40;0.80;;;;;11.76;68.10;99675.94;5033228;28;45543;-57
2023/04/01 02:23:50;;;;;;;;;0.40;0.40;;;;;11.79;67.17;99680.09;5016801;28;45553;-55
2023/04/01 02:26:15;;;;;;;;;2.25;1.00;;;;;11.80;66.76;99676.28;5016633;28;46464;-56
2023/04/01 02:28:41;;;;;;;;;0.00;0.00;;;;;11.88;66.51;99683.28;5016410;28;45436;-57
2023/04/01 02:31:07;;;;;;;;;0.25;0.00;;;;;11.86;66.53;99688.22;5017124;28;45463;-57
2023/04/01 02:33:33;;;;;;;;;4.40;1.00;;;;;11.91;66.14;99682.81;5016773;28;45541;-57
2023/04/01 02:35:58;;;;;;;;;0.75;0.25;;;;;11.86;65.80;99686.31;5034358;28;46655;-57
2023/04/01 02:38:24;;;;;;;;;1.00;0.00;;;;;11.76;65.74;99675.94;4999913;28;45432;-57
2023/04/01 02:40:51;;;;;;;;;0.00;0.00;;;;;11.88;65.93;99699.78;5034603;28;45340;-57
2023/04/01 02:43:17;;;;;;;;;1.20;0.80;;;;;11.91;65.53;99705.63;5034637;28;45469;-56
2023/04/01 02:45:43;;;;;;;;;1.25;1.25;;;;;11.86;64.94;99689.06;5016671;28;46151;-55
2023/04/01 02:48:08;;;;;;;;;1.80;0.00;;;;;11.68;65.00;99657.09;5034063;28;45843;-55
2023/04/01 02:50:34;;;;;;;;;0.00;0.00;;;;;11.83;65.41;99689.53;5016172;28;45378;-57
2023/04/01 02:53:00;;;;;;;;;0.75;0.00;;;;;11.83;64.93;99694.19;5016801;28;45513;-57
2023/04/01 02:55:25;;;;;;;;;0.00;0.00;;;;;11.88;65.01;99702.53;5033660;28;46121;-57
2023/04/01 02:57:51;;;;;;;;;1.00;0.00;;;;;11.66;64.85;99667.50;5034280;28;45447;-57
2023/04/01 03:00:17;;;;;;;;;0.00;0.00;;;;;11.60;63.97;99655.59;5034414;28;45378;-55
2023/04/01 03:02:44;;;;;;;;;2.40;0.00;;;;;11.90;64.30;99703.97;5034330;28;45515;-55
2023/04/01 03:05:09;;;;;;;;;0.20;0.20;;;;;11.76;64.79;99697.94;5033455;28;46700;-58
2023/04/01 03:07:35;;;;;;;;;0.00;0.00;;;;;11.78;64.60;99704.03;4983103;28;46615;-59
2023/04/01 03:10:01;;;;;;;;;0.75;0.00;;;;;11.66;64.42;99687.59;5034152;28;45399;-56
2023/04/01 03:12:26;;;;;;;;;0.75;0.00;;;;;11.77;64.23;99696.84;5034162;28;45284;-55
2023/04/01 03:14:52;;;;;;;;;1.00;0.00;;;;;11.84;64.69;99724.19;5033846;28;45758;-56
2023/04/01 03:17:17;;;;;;;;;1.50;1.00;;;;;11.87;64.35;99709.97;5032221;28;45422;-55
2023/04/01 03:19:43;;;;;;;;;0.00;0.00;;;;;11.90;64.61;99716.88;5033800;28;45366;-56
2023/04/01 03:22:10;;;;;;;;;2.00;1.00;;;;;11.88;64.73;99724.53;5034578;28;45533;-57
2023/04/01 03:24:36;;;;;;;;;1.40;0.00;;;;;11.85;64.90;99725.84;5032093;28;46724;-56
2023/04/01 03:27:01;;;;;;;;;0.00;0.00;;;;;11.85;64.96;99711.28;5033843;28;45394;-55
2023/04/01 03:29:26;;;;;;;;;0.75;0.75;;;;;11.83;64.97;99728.03;5033881;28;45458;-56
2023/04/01 03:31:52;;;;;;;;;1.00;1.00;;;;;11.56;65.99;99698.38;5034192;28;45259;-57
2023/04/01 03:34:17;;;;;;;;;1.00;1.00;;;;;11.66;66.54;99730.72;5033471;28;45915;-55
2023/04/01 03:36:43;;;;;;;;;0.25;0.00;;;;;11.46;66.45;99700.88;5033669;28;45936;-56
2023/04/01 03:39:08;;;;;;;;;0.50;0.00;;;;;11.68;66.27;99728.53;5033560;28;45331;-54
2023/04/01 03:41:36;;;;;;;;;3.25;1.00;;;;;11.69;65.89;99727.47;5034062;28;45578;-54
2023/04/01 03:44:02;;;;;;;;;0.40;0.40;;;;;11.71;66.35;99727.22;5033369;28;45667;-59
2023/04/01 03:46:27;;;;;;;;;0.50;0.00;;;;;11.37;66.43;99689.47;5015899;28;45343;-56
2023/04/01 03:48:53;;;;;;;;;1.50;0.00;;;;;11.70;65.95;99731.06;5032040;28;45379;-56
2023/04/01 03:51:18;;;;;;;;;0.00;0.00;;;;;11.58;65.80;99703.63;5034264;28;45406;-56
2023/04/01 03:53:44;;;;;;;;;1.00;0.00;;;;;11.47;64.74;99711.66;5033230;28;46114;-56
2023/04/01 03:56:10;;;;;;;;;3.75;1.00;;;;;11.57;65.28;99729.44;5033020;28;45309;-56
2023/04/01 03:58:35;;;;;;;;;2.75;0.00;;;;;11.50;65.51;99737.81;5015190;28;45427;-57
2023/04/01 04:01:01;;;;;;;;;1.00;0.00;;;;;11.46;65.19;99715.47;5033638;28;45252;-57
2023/04/01 04:03:26;;;;;;;;;0.00;0.00;;;;;11.70;65.17;99742.06;5033048;28;45771;-56
2023/04/01 04:05:52;;;;;;;;;0.00;0.00;;;;;11.44;64.67;99701.16;5031769;28;46282;-55
2023/04/01 04:08:17;;;;;;;;;1.00;0.00;;;;;11.62;64.90;99752.34;5033299;28;45519;-56
2023/04/01 04:10:43;;;;;;;;;1.00;0.00;;;;;11.65;65.23;99740.03;5033589;28;45352;-55
2023/04/01 04:13:08;;;;;;;;;0.00;0.00;;;;;11.69;65.27;99749.44;5014659;28;47149;-56
2023/04/01 04:15:34;;;;;;;;;0.00;0.00;;;;;11.74;65.05;99755.06;5033024;28;45292;-56
2023/04/01 04:17:59;;;;;;;;;0.50;0.50;;;;;11.73;65.16;99752.53;5035213;28;45284;-57
2023/04/01 04:20:25;;;;;;;;;1.50;0.00;;;;;11.77;65.21;99762.84;5036772;28;45342;-57
2023/04/01 04:22:50;;;;;;;;;1.25;0.00;;;;;11.59;64.77;99719.03;5036806;28;46829;-55
2023/04/01 04:25:16;;;;;;;;;1.00;1.00;;;;;11.84;65.07;99759.94;5034937;28;45719;-56
2023/04/01 04:27:41;;;;;;;;;3.00;1.00;;;;;11.68;64.69;99747.78;5036959;28;45359;-57
2023/04/01 04:30:07;;;;;;;;;0.00;0.00;;;;;11.72;64.60;99768.22;5036697;28;45371;-56
2023/04/01 04:32:33;;;;;;;;;2.00;0.50;;;;;11.78;64.49;99758.16;5034826;28;47512;-58
2023/04/01 04:34:58;;;;;;;;;0.25;0.00;;;;;11.71;64.62;99741.81;5035058;28;46618;-59
2023/04/01 04:37:25;;;;;;;;;3.00;0.00;;;;;11.77;64.74;99754.59;5018601;28;45492;-56
2023/04/01 04:39:51;;;;;;;;;1.00;1.00;;;;;11.79;64.27;99759.81;5036695;28;45416;-54
2023/04/01 04:42:16;;;;;;;;;2.00;1.00;;;;;11.73;64.68;99747.91;5017907;28;45433;-56
2023/04/01 04:44:42;;;;;;;;;2.00;1.00;;;;;11.49;64.74;99736.13;5018431;28;45510;-56
2023/04/01 04:47:07;;;;;;;;;0.00;0.00;;;;;11.73;64.21;99767.13;5018662;28;45929;-57
2023/04/01 04:49:32;;;;;;;;;1.00;0.00;;;;;11.66;64.14;99758.19;5036217;28;45624;-55
2023/04/01 04:51:58;;;;;;;;;1.00;0.00;;;;;11.65;64.25;99764.78;5036707;28;46398;-54
2023/04/01 04:54:23;;;;;;;;;1.25;1.25;;;;;11.61;64.63;99769.94;5035576;28;45462;-53
2023/04/01 04:56:51;;;;;;;;;0.50;0.00;;;;;11.37;64.38;99725.19;5003917;28;45884;-54
2023/04/01 04:59:17;;;;;;;;;0.20;0.20;;;;;11.64;64.42;99771.34;5048477;28;45533;-56
2023/04/01 05:01:42;;;;;;;;;1.00;1.00;;;;;11.49;63.94;99747.13;5035595;28;46017;-54
2023/04/01 05:04:08;;;;;;;;;1.00;1.00;;;;;11.65;63.42;99765.59;5035603;28;45294;-56
2023/04/01 05:06:33;;;;;;;;;0.00;0.00;;;;;11.72;64.15;99768.22;5034102;28;45390;-55
2023/04/01 05:08:59;;;;;;;;;1.00;1.00;;;;;11.79;63.35;99776.31;5035993;28;45280;-58
2023/04/01 05:11:25;;;;;;;;;0.00;0.00;;;;;11.78;63.35;99780.16;5000866;28;48761;-57
2023/04/01 05:13:51;;;;;;;;;0.00;0.00;;;;;11.84;63.37;99781.91;5001279;28;45358;-58
2023/04/01 05:16:18;;;;;;;;;0.00;0.00;;;;;11.83;63.96;99788.50;5001527;28;45350;-54
2023/04/01 05:18:43;;;;;;;;;2.00;1.00;;;;;11.62;63.52;99757.84;5051093;28;45396;-57
2023/04/01 05:21:10;;;;;;;;;1.25;0.00;;;;;11.77;63.55;99779.31;5018054;28;46580;-57
2023/04/01 05:23:36;;;;;;;;;0.00;0.00;;;;;11.79;63.16;99790.06;5035076;28;45426;-55
2023/04/01 05:26:05;;;;;;;;;0.75;0.75;;;;;11.83;63.35;99785.75;5035967;28;45388;-53
2023/04/01 05:28:31;;;;;;;;;1.00;0.00;;;;;11.80;63.63;99792.56;5016936;28;45599;-56
2023/04/01 05:30:59;;;;;;;;;2.00;1.00;;;;;11.60;63.20;99771.00;5035339;28;46057;-56
2023/04/01 05:33:24;;;;;;;;;0.00;0.00;;;;;11.79;63.74;99788.16;5017521;28;45415;-55
2023/04/01 05:35:50;;;;;;;;;0.50;0.50;;;;;11.58;63.99;99761.34;5035314;28;45362;-55
2023/04/01 05:38:15;;;;;;;;;0.00;0.00;;;;;11.71;63.74;99796.78;5035627;28;45414;-57
2023/04/01 05:40:41;;;;;;;;;1.50;0.00;;;;;11.80;63.56;99819.25;5033441;28;46668;-56
2023/04/01 05:43:06;;;;;;;;;0.00;0.00;;;;;11.56;64.21;99805.53;5035161;28;45721;-56
2023/04/01 05:45:32;;;;;;;;;0.25;0.25;;;;;11.43;64.30;99783.81;5035110;28;45351;-57
2023/04/01 05:47:59;;;;;;;;;0.75;0.00;;;;;11.57;64.34;99817.38;5050740;28;45435;-56
2023/04/01 05:50:24;;;;;;;;;0.80;0.00;;;;;11.62;64.21;99807.31;5034935;28;45720;-56
2023/04/01 05:52:50;;;;;;;;;0.25;0.00;;;;;11.66;63.64;99808.53;5034867;28;45350;-56
2023/04/01 05:55:15;;;;;;;;;0.00;0.00;;;;;11.69;64.06;99811.84;5034849;28;45434;-56
2023/04/01 05:57:41;;;;;;;;;0.00;0.00;;;;;11.71;63.72;99820.69;5035365;28;45268;-55
2023/04/01 06:00:07;;;;;;;;;0.00;0.00;;;;;11.71;63.35;99829.78;5033121;28;48346;-55
2023/04/01 06:02:32;;;;;;;;;0.00;0.00;;;;;11.66;63.53;99827.75;5034837;28;45284;-57
2023/04/01 06:05:21;;;;;;;;;0.00;0.00;;;;;11.69;63.52;99837.41;5034883;28;45407;-56
2023/04/01 06:07:47;;;;;;;;;0.40;0.40;;;;;11.73;63.57;99838.59;5035097;28;45754;-56
2023/04/01 06:10:17;;;;;;;;;1.00;0.25;;;;;11.70;63.54;99841.84;5034854;28;46258;-57
2023/04/01 06:12:54;;;;;;;;;0.00;0.00;;;;;11.70;63.32;99847.34;5016503;28;45549;-59
2023/04/01 06:15:36;;;;;;;;;1.00;1.00;;;;;11.68;63.77;99838.50;5017094;28;45304;-55
2023/04/01 06:18:16;;;;;;;;;0.00;0.00;;;;;11.76;63.73;99851.03;5034599;28;45444;-56
2023/04/01 06:20:53;;;;;;;;;2.60;1.00;;;;;11.78;62.80;99857.97;5016509;28;45494;-56
2023/04/01 06:23:44;;;;;;;;;0.80;0.00;;;;;11.79;62.84;99856.88;5049806;28;45468;-57
2023/04/01 06:26:30;;;;;;;;;0.00;0.00;;;;;11.62;62.85;99833.97;5035018;28;45318;-56
2023/04/01 06:29:01;;;;;;;;;0.20;0.00;;;;;11.70;62.60;99841.00;5032486;28;45458;-57
2023/04/01 06:31:42;;;;;;;;;2.40;1.40;;;;;11.69;62.14;99859.41;5034615;28;46412;-56
2023/04/01 06:34:26;;;;;;;;;0.60;0.00;;;;;11.71;62.21;99854.50;5034259;28;45330;-59
2023/04/01 06:37:10;;;;;;;;;0.00;0.00;;;;;11.77;62.26;99856.31;4996572;28;45392;-56
2023/04/01 06:40:03;;;;;;;;;0.80;0.20;;;;;11.69;62.17;99844.84;5014529;28;45348;-57
2023/04/01 06:42:55;;;;;;;;;0.00;0.00;;;;;11.80;61.90;99875.06;4999186;28;45914;-54
2023/04/01 06:45:26;;;;;;;;;0.00;0.00;;;;;11.78;61.57;99879.97;4996265;28;45379;-57
2023/04/01 06:48:29;;;;;;;;;1.00;0.00;;;;;11.78;61.47;99863.47;5014350;28;45364;-58
2023/04/01 06:51:20;;;;;;;;;0.00;0.00;;;;;11.77;62.00;99880.19;5014240;28;45502;-57
2023/04/01 06:53:57;;;;;;;;;2.00;2.00;;;;;11.83;61.88;99872.88;5014092;28;45390;-56
2023/04/01 06:56:26;;;;;;;;;1.60;0.00;;;;;11.83;61.90;99884.72;5003949;28;45886;-58
2023/04/01 06:58:53;;;;;;;;;1.00;1.00;;;;;11.90;61.75;99868.94;5054204;28;45679;-57
2023/04/01 07:01:42;;;;;;;;;0.80;0.00;;;;;11.82;61.54;99871.22;5036514;28;45532;-57
2023/04/01 07:04:23;;;;;;;;;0.00;0.00;;;;;11.48;61.30;99801.25;5028396;28;45628;-57
2023/04/01 07:07:04;;;;;;;;;1.60;1.60;;;;;12.00;61.36;99871.06;5020999;28;45350;-57
2023/04/01 07:09:38;;;;;;;;;1.00;0.00;;;;;12.02;61.13;99879.09;5036220;28;45415;-55
2023/04/01 07:12:47;;;;;;;;;2.00;2.00;;;;;12.07;60.77;99874.53;5053355;28;45521;-58
2023/04/01 07:15:24;;;;;;;;;0.60;0.60;;;;;12.00;60.94;99906.81;5027880;28;46467;-54
2023/04/01 07:17:55;;;;;;;;;1.00;1.00;;;;;11.99;60.97;99891.41;5054150;28;45458;-57
2023/04/01 07:20:35;;;;;;;;;2.40;0.20;;;;;11.92;60.94;99891.53;5069952;28;45385;-56
2023/04/01 07:23:23;;;;;;;;;0.20;0.00;;;;;11.99;60.55;99885.06;5070311;28;45312;-57
2023/04/01 07:25:55;;;;;;;;;0.80;0.80;;;;;11.98;60.62;99883.38;5035869;28;45717;-57
2023/04/01 07:28:22;;;;;;;;;0.00;0.00;;;;;12.06;60.38;99886.63;5053018;28;45446;-57
2023/04/01 07:31:14;;;;;;;;;2.60;0.00;;;;;11.95;60.14;99887.44;5054055;28;45354;-58
2023/04/01 07:33:55;;;;;;;;;0.60;0.60;;;;;12.06;60.45;99894.03;5054286;28;45415;-55
2023/04/01 07:36:33;;;;;;;;;0.00;0.00;;;;;12.07;60.27;99902.06;5039675;28;45468;-55
2023/04/01 07:39:08;;;;;;;;;0.00;0.00;;;;;12.12;60.08;99906.81;5031068;28;45496;-56
2023/04/01 07:42:07;;;;;;;;;0.60;0.60;;;;;11.92;59.71;99872.28;5033681;28;45337;-56
2023/04/01 07:44:45;;;;;;;;;2.80;0.80;;;;;12.20;59.87;99900.97;5033368;28;45453;-56
2023/04/01 07:47:20;;;;;;;;;0.00;0.00;;;;;12.20;59.71;99891.84;5049140;28;48686;-57
2023/04/01 07:50:13;;;;;;;;;0.00;0.00;;;;;12.24;59.70;99904.06;5031123;28;45316;-56
2023/04/01 07:52:44;;;;;;;;;0.20;0.20;;;;;12.27;59.70;99903.56;5050877;28;45419;-58
2023/04/01 07:55:14;;;;;;;;;0.00;0.00;;;;;12.34;59.61;99914.44;4994007;28;45475;-57
2023/04/01 07:58:02;;;;;;;;;0.00;0.00;;;;;12.42;59.33;99904.94;4995353;28;45644;-57
2023/04/01 08:00:48;;;;;;;;;0.80;0.00;;;;;12.27;58.97;99899.97;5022504;28;45413;-59
2023/04/01 08:03:52;;;;;;;;;0.60;0.60;;;;;12.41;58.75;99919.78;5030428;28;45628;-55
2023/04/01 08:06:37;;;;;;;;;0.00;0.00;;;;;12.47;59.11;99918.81;5022176;28;45653;-61
2023/04/01 08:09:16;;;;;;;;;0.00;0.00;;;;;12.56;58.93;99903.59;5016444;28;46578;-58
2023/04/01 08:11:58;;;;;;;;;1.00;1.00;;;;;12.59;58.37;99936.13;5016543;28;45465;-61
2023/04/01 08:14:35;;;;;;;;;0.20;0.20;;;;;12.63;58.17;99930.94;5032212;28;45461;-58
2023/04/01 08:17:13;;;;;;;;;0.40;0.00;;;;;12.66;57.46;99921.38;5042856;28;45433;-61
2023/04/01 08:20:17;;;;;;;;;0.00;0.00;;;;;12.61;57.80;99939.44;5043207;28;46500;-60
2023/04/01 08:22:45;;;;;;;;;0.00;0.00;;;;;12.61;57.68;99936.69;4952337;28;45717;-58
2023/04/01 08:25:17;;;;;;;;;0.60;0.60;;;;;12.57;56.96;99921.78;4984918;28;45547;-58
2023/04/01 08:27:51;;;;;;;;;0.80;0.80;;;;;12.43;57.24;99879.13;4996858;28;45483;-59
2023/04/01 08:30:19;;;;;;;;;0.60;0.60;;;;;12.82;56.82;99933.50;4999795;28;46388;-61
2023/04/01 08:32:53;;;;;;;;;0.00;0.00;;;;;12.88;56.59;99946.28;5032593;28;45490;-60
2023/04/01 08:35:38;;;;;;;;;0.60;0.60;;;;;12.81;56.61;99915.31;5016319;28;45935;-60
2023/04/01 08:38:18;;;;;;;;;0.40;0.20;;;;;12.96;55.91;99945.88;5051142;28;45593;-58
2023/04/01 08:41:22;;;;;;;;;0.00;0.00;;;;;12.98;56.15;99948.41;5034536;28;46710;-58
2023/04/01 08:44:21;;;;;;;;;0.40;0.40;;;;;13.04;55.65;99941.91;4973710;28;45356;-59
2023/04/01 08:47:24;;;;;;;;;0.00;0.00;;;;;13.14;54.59;99957.78;4973757;28;45536;-60
2023/04/01 08:50:01;;;;;;;;;0.00;0.00;;;;;13.13;55.50;99950.59;5031582;28;45260;-59
2023/04/01 08:52:37;;;;;;;;;0.00;0.00;;;;;13.10;55.70;99949.19;5033207;28;46405;-58
2023/04/01 08:55:22;;;;;;;;;1.00;0.00;;;;;12.86;55.85;99927.25;5037156;28;45535;-59
2023/04/01 08:58:16;;;;;;;;;1.00;0.20;;;;;12.98;55.64;99910.66;5002793;28;45757;-54
2023/04/01 09:00:54;;;;;;;;;0.00;0.00;;;;;13.27;55.66;99945.59;5003074;28;45663;-56
2023/04/01 09:03:20;;;;;;;;;1.00;0.60;;;;;13.34;55.07;99939.94;5014119;28;45784;-56
2023/04/01 09:06:20;;;;;;;;;0.00;0.00;;;;;13.36;55.41;99949.63;5031447;28;45999;-56
2023/04/01 09:09:04;;;;;;;;;2.00;0.00;;;;;13.38;55.21;99952.09;5022124;28;45533;-56
2023/04/01 09:12:04;;;;;;;;;0.00;0.00;;;;;13.14;55.66;99931.03;5023948;28;46011;-57
2023/04/01 09:14:58;;;;;;;;;3.00;0.00;;;;;13.28;55.45;99944.50;5029575;28;47583;-58
2023/04/01 09:17:35;;;;;;;;;1.60;0.00;;;;;13.36;56.05;99935.00;5023382;28;45800;-57
2023/04/01 09:20:26;;;;;;;;;2.00;1.00;;;;;13.41;55.23;99940.59;5030705;28;45486;-58
2023/04/01 09:23:05;;;;;;;;;2.00;0.20;;;;;13.50;55.55;99946.56;5018902;28;45905;-54
2023/04/01 09:25:34;;;;;;;;;0.60;0.00;;;;;13.45;55.02;99943.69;5032203;28;45746;-56
2023/04/01 09:28:11;;;;;;;;;0.00;0.00;;;;;12.90;55.69;99874.44;5035816;28;46032;-58
2023/04/01 09:31:08;;;;;;;;;1.40;0.80;;;;;13.52;54.89;99950.75;5039006;28;45500;-57
2023/04/01 09:33:51;;;;;;;;;0.60;0.00;;;;;13.49;55.44;99944.88;5029608;28;45578;-57
2023/04/01 09:36:28;;;;;;;;;2.60;0.20;;;;;13.45;55.32;99951.94;5024494;28;47006;-57
2023/04/01 09:39:12;;;;;;;;;1.20;0.20;;;;;13.54;55.19;99950.47;5000682;28;45689;-57
2023/04/01 09:41:46;;;;;;;;;3.00;1.00;;;;;13.68;54.63;99954.53;4995577;28;45495;-60
2023/04/01 09:44:19;;;;;;;;;2.00;2.00;;;;;13.81;54.64;99956.13;5015904;28;45481;-60
2023/04/01 09:47:14;;;;;;;;;2.60;0.00;;;;;13.74;53.43;99963.75;5015492;28;45948;-60
2023/04/01 09:50:15;;;;;;;;;0.20;0.00;;;;;13.49;52.73;99939.34;5046976;28;45540;-60
2023/04/01 09:52:43;;;;;;;;;1.00;1.00;;;;;13.17;52.87;99876.56;5001417;28;45800;-60
2023/04/01 09:55:15;;;;;;;;;3.20;0.00;;;;;13.69;53.35;99964.50;5032604;28;45800;-59
2023/04/01 09:57:55;;;;;;;;;2.20;1.00;;;;;13.72;52.43;99954.88;5013021;28;45734;-60
2023/04/01 10:00:36;;;;;;;;;0.00;0.00;;;;;13.69;52.60;99963.66;5028904;28;45507;-60
2023/04/01 10:03:12;;;;;;;;;1.00;0.00;;;;;13.62;51.59;99979.53;5008653;28;45617;-60
2023/04/01 10:05:50;;;;;;;;;2.60;0.00;;;;;13.45;51.99;99943.69;5013263;28;45554;-60
2023/04/01 10:08:32;;;;;;;;;1.00;1.00;;;;;13.75;51.82;99979.19;5049667;28;45743;-61
2023/04/01 10:11:15;;;;;;;;;1.40;0.40;;;;;13.67;50.59;99930.00;5048479;28;45298;-60
2023/04/01 10:14:08;;;;;;;;;0.00;0.00;;;;;13.96;50.36;99968.47;5048711;28;45413;-60
2023/04/01 10:17:07;;;;;;;;;1.20;0.00;;;;;13.96;48.94;99977.59;5032685;28;45519;-61
2023/04/01 10:20:03;;;;;;;;;1.00;0.00;;;;;14.13;49.98;99973.97;5030571;28;45865;-60
2023/04/01 10:22:50;;;;;;;;;0.00;0.00;;;;;14.12;49.44;99954.88;5022761;28;45674;-60
2023/04/01 10:25:30;;;;;;;;;0.20;0.20;;;;;13.91;49.14;99941.66;5032332;28;45589;-61
2023/04/01 10:28:26;;;;;;;;;0.60;0.00;;;;;14.27;48.83;99970.81;5017456;28;45641;-57
2023/04/01 10:31:06;;;;;;;;;1.20;0.80;;;;;14.43;48.79;99974.63;5030898;28;46217;-62
2023/04/01 10:33:41;;;;;;;;;0.20;0.00;;;;;14.40;48.36;99969.63;5031711;28;45410;-61
2023/04/01 10:36:40;;;;;;;;;0.00;0.00;;;;;14.57;48.31;99948.28;5030886;28;45760;-58
2023/04/01 10:39:30;;;;;;;;;2.20;2.00;;;;;14.64;48.17;99964.66;5031997;28;45394;-60
2023/04/01 10:42:08;;;;;;;;;1.40;0.80;;;;;14.80;47.91;99953.81;5047435;28;46062;-59
2023/04/01 10:45:04;;;;;;;;;2.00;0.20;;;;;14.87;47.53;99958.06;5029254;28;45552;-60
2023/04/01 10:47:48;;;;;;;;;1.60;0.60;;;;;14.71;47.40;99965.31;5029420;28;45473;-58
2023/04/01 10:50:32;;;;;;;;;0.00;0.00;;;;;14.62;46.46;99947.53;5032317;28;45382;-58
2023/04/01 10:53:10;;;;;;;;;1.20;1.20;;;;;14.76;47.33;99948.81;5032177;28;45653;-56
2023/04/01 10:55:36;;;;;;;;;1.00;0.20;;;;;14.72;46.83;99942.09;5033889;28;45415;-57
2023/04/01 10:58:08;;;;;;;;;0.00;0.00;;;;;14.58;46.69;99913.22;5030117;28;45618;-59
2023/04/01 11:00:55;;;;;;;;;0.00;0.00;;;;;14.93;45.97;99958.94;5045789;28;45552;-58
2023/04/01 11:03:51;;;;;;;;;1.80;0.80;;;;;15.07;46.11;99962.13;5049089;28;46306;-56
2023/04/01 11:06:31;;;;;;;;;0.00;0.00;;;;;15.34;45.95;99957.66;5054200;28;45271;-57
2023/04/01 11:09:10;;;;;;;;;2.20;0.00;;;;;15.40;44.70;99945.53;5042346;28;45455;-52
2023/04/01 11:11:51;;;;;;;;;1.00;0.00;;;;;15.64;44.69;99925.81;5016449;28;45570;-54
2023/04/01 11:14:21;;;;;;;;;1.20;0.00;;;;;15.71;43.74;99910.63;5032778;28;47025;-56
2023/04/01 11:17:11;;;;;;;;;2.60;0.80;;;;;15.86;43.70;99939.53;5032541;28;45426;-55
2023/04/01 11:19:41;;;;;;;;;1.00;1.00;;;;;15.27;44.51;99855.59;5034374;28;45369;-57
2023/04/01 11:22:29;;;;;;;;;0.80;0.80;;;;;15.93;44.75;99940.16;5033114;28;45470;-59
2023/04/01 11:25:25;;;;;;;;;1.20;0.80;;;;;15.97;44.19;99921.06;5025499;28;45774;-59
2023/04/01 11:28:02;;;;;;;;;0.40;0.00;;;;;16.08;43.21;99939.41;5031226;28;45390;-58
2023/04/01 11:30:40;;;;;;;;;0.20;0.00;;;;;15.85;44.48;99908.25;4999558;28;45403;-57
2023/04/01 11:33:26;;;;;;;;;0.20;0.20;;;;;16.15;44.37;99941.06;5031630;28;45455;-58
2023/04/01 11:36:21;;;;;;;;;3.20;2.00;;;;;16.11;44.27;99916.72;5014314;28;46717;-59
2023/04/01 11:39:15;;;;;;;;;5.20;3.40;;;;;16.18;44.08;99935.00;5025986;28;45356;-57
2023/04/01 11:41:59;;;;;;;;;1.00;0.80;;;;;15.98;44.24;99945.72;5012524;28;45349;-61
2023/04/01 11:44:27;;;;;;;;;1.00;1.00;;;;;15.84;43.76;99939.78;5000420;28;45414;-60
2023/04/01 11:47:30;;;;;;;;;1.00;0.00;;;;;15.74;44.89;99949.94;5003400;28;46729;-59
2023/04/01 11:50:16;;;;;;;;;4.40;1.00;;;;;15.58;45.28;99956.19;5031017;28;45818;-56
2023/04/01 11:53:08;;;;;;;;;3.40;2.20;;;;;15.44;45.60;99938.41;5027450;28;45346;-59
2023/04/01 11:55:57;;;;;;;;;3.00;1.00;;;;;15.59;45.50;99955.09;5011121;28;45500;-59
2023/04/01 11:58:38;;;;;;;;;0.00;0.00;;;;;15.74;44.69;99958.25;5012127;28;46051;-59
2023/04/01 12:01:25;;;;;;;;;2.40;2.00;;;;;15.88;43.96;99961.38;4994992;28;45738;-60
2023/04/01 12:04:24;;;;;;;;;0.40;0.40;;;;;15.79;44.16;99930.63;4994473;28;45754;-60
2023/04/01 12:07:18;;;;;;;;;1.00;1.00;;;;;15.94;43.47;99927.13;5004919;28;45403;-60
2023/04/01 12:10:12;;;;;;;;;3.00;1.20;;;;;15.92;43.78;99963.38;5026310;28;45803;-58